Terminal Aerodrome Forecast
Issued by NWS

Home | Current Version | Previous Version | Text Only | Print | Product List | Glossary On
Versions: 1 2 3 4 5 6 7 8 9 10 11 12 13 14 15
000
FTUS45 KFGZ 261700 RRA
TAFPGA
TAF
KPGA 261746Z 2618/2718 VRB04KT P6SM SCT080 OVC100
     FM262000 33007KT P6SM SCT080 OVC100
     FM270100 VRB04KT P6SM SCT080 BKN100=

USA.gov is the U.S. government's official web portal to all federal, state and local government web resources and services.